Orel 5 — EMFH — position and weather

sailwx.info

Track history (hours):
 
Tides and Currents Weather Stations Pressure Air Temp Water Temp Dewpoint Dewpoint Depression Visibility Wind Speed Wind Dir Waves Ship Positions

Orel 5

Last reported at 2017-Feb-22 11:26 UTC. Time now 2017-Feb-24 10:24 UTC.
Position N 46°26' E 030°56'.

Length 108 m; draft 3.3 m.

Type: Cargo ship. MMSI: 272059000.

Date/timePositionNaut miles runAvg speedWind from/ knotsBaromVisibWave heightAir tempDewpointWater temp
2017-Feb-22 11:26N 46°26' E 030°56'31 6.3
2017-Feb-22 06:33N 46°35' E 031°38'6 5.6
2017-Feb-22 05:33N 46°36' E 031°46'6 5.9
2017-Feb-22 04:33N 46°34' E 031°54'6 6.0
2017-Feb-22 03:33N 46°32' E 032°03'2 0.7
2017-Feb-22 01:29N 46°32' E 032°05'0 0.1
2017-Feb-21 23:29N 46°32' E 032°05'0 0.0
2017-Feb-21 22:29N 46°32' E 032°05'0 0.1
2017-Feb-21 20:08N 46°32' E 032°05'0 0.0
2017-Feb-21 19:29N 46°32' E 032°05'0 0.0
2017-Feb-21 18:26N 46°32' E 032°05'0 0.1
2017-Feb-21 17:33N 46°32' E 032°05'  
2017-Feb-18 10:33N 46°32' E 032°05'6 5.7
2017-Feb-18 09:33N 46°34' E 031°57'5 4.8
2017-Feb-18 08:33N 46°35' E 031°50'8 7.4
2017-Feb-18 07:29N 46°36' E 031°39'29 1.3
2017-Feb-17 09:29N 46°30' E 030°57'  
Track history (hours):
 
Tides and Currents Weather Stations Pressure Air Temp Water Temp Dewpoint Dewpoint Depression Visibility Wind Speed Wind Dir Waves Ship Positions

Orel 5

Last reported at 2017-Feb-22 11:26 UTC. Time now 2017-Feb-24 10:24 UTC.
Position N 46°26' E 030°56'.

Length 108 m; draft 3.3 m.

Type: Cargo ship. MMSI: 272059000.

Date/timePositionNaut miles runAvg speedWind from/ knotsBaromVisibWave heightAir tempDewpointWater temp
2017-Feb-22 11:26N 46°26' E 030°56'31 6.3
2017-Feb-22 06:33N 46°35' E 031°38'6 5.6
2017-Feb-22 05:33N 46°36' E 031°46'6 5.9
2017-Feb-22 04:33N 46°34' E 031°54'6 6.0
2017-Feb-22 03:33N 46°32' E 032°03'2 0.7
2017-Feb-22 01:29N 46°32' E 032°05'0 0.1
2017-Feb-21 23:29N 46°32' E 032°05'0 0.0
2017-Feb-21 22:29N 46°32' E 032°05'0 0.1
2017-Feb-21 20:08N 46°32' E 032°05'0 0.0
2017-Feb-21 19:29N 46°32' E 032°05'0 0.0
2017-Feb-21 18:26N 46°32' E 032°05'0 0.1
2017-Feb-21 17:33N 46°32' E 032°05'  
2017-Feb-18 10:33N 46°32' E 032°05'6 5.7
2017-Feb-18 09:33N 46°34' E 031°57'5 4.8
2017-Feb-18 08:33N 46°35' E 031°50'8 7.4
2017-Feb-18 07:29N 46°36' E 031°39'29 1.3
2017-Feb-17 09:29N 46°30' E 030°57'  

Dump ship's entire track history